createdAt,value
2017-10-06T00:01:55.358Z,81.90
2017-10-06T00:04:27.807Z,82.10
2017-10-06T00:06:58.666Z,82.00
2017-10-06T00:09:30.325Z,82.40
2017-10-06T00:12:02.694Z,82.60
2017-10-06T00:14:33.814Z,82.60
2017-10-06T00:17:08.076Z,82.10
2017-10-06T00:19:40.184Z,81.90
2017-10-06T00:22:12.528Z,81.70
2017-10-06T00:24:43.574Z,81.70
2017-10-06T00:27:15.727Z,81.60
2017-10-06T00:29:49.582Z,82.10
2017-10-06T00:32:23.432Z,82.10
2017-10-06T00:34:59.546Z,82.40
2017-10-06T00:37:32.210Z,82.60
2017-10-06T00:40:03.093Z,82.40
2017-10-06T00:42:33.812Z,82.40
2017-10-06T00:45:05.567Z,82.80
2017-10-06T00:47:37.526Z,83.00
2017-10-06T00:50:09.925Z,83.10
2017-10-06T00:52:41.330Z,83.10
2017-10-06T00:55:11.676Z,83.20
2017-10-06T00:57:44.708Z,83.50
2017-10-06T01:00:17.341Z,84.70
2017-10-06T01:02:48.079Z,83.60
2017-10-06T01:05:19.085Z,84.60
2017-10-06T01:07:49.833Z,84.50
2017-10-06T01:10:21.020Z,84.50
2017-10-06T01:12:55.295Z,83.40
2017-10-06T01:15:28.058Z,84.50
2017-10-06T01:17:59.371Z,84.50
2017-10-06T01:20:31.594Z,84.50
2017-10-06T01:23:01.950Z,84.60
2017-10-06T01:25:32.130Z,84.60
2017-10-06T01:28:02.566Z,84.70
2017-10-06T01:30:32.828Z,84.70
2017-10-06T01:33:05.060Z,84.80
2017-10-06T01:35:34.873Z,85.00
2017-10-06T01:38:05.338Z,85.20
2017-10-06T01:40:37.662Z,85.10
2017-10-06T01:43:08.259Z,85.10
2017-10-06T01:45:38.555Z,85.30
2017-10-06T01:48:09.943Z,85.40
2017-10-06T01:50:40.673Z,85.20
2017-10-06T01:53:12.091Z,85.50
2017-10-06T01:55:42.245Z,85.50
2017-10-06T01:58:13.784Z,85.40
2017-10-06T02:00:44.051Z,85.50
2017-10-06T02:03:14.816Z,85.60
2017-10-06T02:05:45.413Z,85.60
2017-10-06T02:08:15.432Z,85.60
2017-10-06T02:10:45.625Z,85.60
2017-10-06T02:13:15.450Z,85.60
2017-10-06T02:15:45.841Z,85.50
2017-10-06T02:18:16.413Z,85.50
2017-10-06T02:20:46.610Z,85.50
2017-10-06T02:23:17.144Z,85.40
2017-10-06T02:25:47.877Z,85.60
2017-10-06T02:28:19.164Z,85.70
2017-10-06T02:30:49.079Z,85.70
2017-10-06T02:33:20.392Z,85.50
2017-10-06T02:35:51.541Z,85.50
2017-10-06T02:38:22.800Z,84.80
2017-10-06T02:40:53.750Z,84.80
2017-10-06T02:43:23.862Z,84.70
2017-10-06T02:45:54.357Z,85.60
2017-10-06T02:48:25.827Z,84.80
2017-10-06T02:50:55.872Z,84.80
2017-10-06T02:53:26.655Z,84.50
2017-10-06T02:55:57.180Z,84.50
2017-10-06T02:58:27.365Z,83.30
2017-10-06T03:00:58.806Z,84.40
2017-10-06T03:03:30.403Z,83.10
2017-10-06T03:06:01.679Z,83.10
2017-10-06T03:08:32.262Z,82.90
2017-10-06T03:11:02.410Z,82.90
2017-10-06T03:13:32.883Z,82.80
2017-10-06T03:16:03.773Z,82.60
2017-10-06T03:18:34.936Z,82.40
2017-10-06T03:21:05.075Z,82.40
2017-10-06T03:23:35.780Z,82.10
2017-10-06T03:26:05.981Z,82.00
2017-10-06T03:28:35.918Z,82.00
2017-10-06T03:31:05.819Z,81.60
2017-10-06T03:33:36.290Z,81.80
2017-10-06T03:36:06.216Z,81.90
2017-10-06T03:38:36.848Z,82.10
2017-10-06T03:41:06.958Z,82.20
2017-10-06T03:43:37.231Z,82.20
2017-10-06T03:46:08.732Z,82.00
2017-10-06T03:48:40.092Z,81.90
2017-10-06T03:51:10.967Z,82.10
2017-10-06T03:53:42.743Z,81.90
2017-10-06T03:56:14.014Z,81.90
2017-10-06T03:58:44.705Z,81.80
2017-10-06T04:01:15.874Z,81.70
2017-10-06T04:03:48.280Z,81.70
2017-10-06T04:06:20.103Z,81.50
2017-10-06T04:08:53.527Z,81.40
2017-10-06T04:11:26.114Z,81.50
2017-10-06T04:13:56.911Z,80.90
2017-10-06T04:16:26.984Z,80.90
2017-10-06T04:18:59.692Z,80.90
2017-10-06T04:21:32.324Z,80.90
2017-10-06T04:24:06.452Z,81.80
2017-10-06T04:26:37.725Z,81.80
2017-10-06T04:29:08.373Z,83.40
2017-10-06T04:31:39.572Z,86.10
2017-10-06T04:34:11.646Z,86.10
2017-10-06T04:36:42.615Z,86.80
2017-10-06T04:39:13.509Z,87.50
2017-10-06T04:41:47.472Z,87.00
2017-10-06T04:44:17.886Z,87.00
2017-10-06T04:46:51.008Z,86.80
2017-10-06T04:49:22.955Z,86.70
2017-10-06T04:51:56.787Z,87.00
2017-10-06T04:54:31.162Z,89.90
2017-10-06T04:57:01.828Z,89.90
2017-10-06T04:59:32.626Z,90.20
2017-10-06T05:02:03.298Z,90.00
2017-10-06T05:04:35.487Z,90.60
2017-10-06T05:07:06.131Z,90.70
2017-10-06T05:09:37.786Z,90.80
2017-10-06T05:12:08.973Z,90.90
2017-10-06T05:14:39.697Z,90.70
2017-10-06T05:17:11.724Z,90.90
2017-10-06T05:19:44.443Z,91.50
2017-10-06T05:22:16.865Z,91.40
2017-10-06T05:24:49.252Z,91.60
2017-10-06T05:27:26.368Z,92.00
2017-10-06T05:29:57.307Z,92.00
2017-10-06T05:32:33.059Z,91.80
2017-10-06T05:35:06.732Z,91.80
2017-10-06T05:37:41.452Z,92.30
2017-10-06T05:40:15.918Z,92.10
2017-10-06T05:42:50.992Z,92.30
2017-10-06T05:45:23.737Z,92.40
2017-10-06T05:47:56.530Z,92.50
2017-10-06T05:50:29.995Z,92.50
2017-10-06T05:53:02.811Z,92.50
2017-10-06T05:55:35.782Z,92.60
2017-10-06T05:58:08.111Z,92.40
2017-10-06T06:00:40.815Z,92.60
2017-10-06T06:03:12.565Z,92.50
2017-10-06T06:05:45.552Z,92.50
2017-10-06T06:08:18.868Z,92.50
2017-10-06T06:10:54.711Z,92.40
2017-10-06T06:13:27.312Z,92.30
2017-10-06T06:16:00.027Z,92.90
2017-10-06T06:18:31.043Z,92.60
2017-10-06T06:21:05.851Z,91.90
2017-10-06T06:23:40.361Z,92.10
2017-10-06T06:26:15.302Z,92.50
2017-10-06T06:28:46.929Z,92.10
2017-10-06T06:31:21.434Z,92.10
2017-10-06T06:33:54.848Z,92.40
2017-10-06T06:36:30.111Z,92.40
2017-10-06T06:39:03.165Z,92.60
2017-10-06T06:41:36.223Z,92.20
2017-10-06T06:44:09.006Z,92.20
2017-10-06T06:46:49.341Z,91.70
2017-10-06T06:49:23.783Z,91.10
2017-10-06T06:51:58.246Z,91.20
2017-10-06T06:54:33.592Z,91.70
2017-10-06T06:57:08.519Z,91.80
2017-10-06T06:59:40.374Z,92.10
2017-10-06T07:02:12.907Z,92.10
2017-10-06T07:04:45.644Z,91.30
2017-10-06T07:07:24.784Z,91.30
2017-10-06T07:09:56.066Z,90.60
2017-10-06T07:12:28.226Z,90.90
2017-10-06T07:14:59.351Z,90.90
2017-10-06T07:17:30.779Z,90.70
2017-10-06T07:20:01.469Z,91.00
2017-10-06T07:22:32.954Z,90.20
2017-10-06T07:25:04.684Z,90.00
2017-10-06T07:27:36.935Z,90.00
2017-10-06T07:30:09.445Z,90.10
2017-10-06T07:32:40.212Z,89.30
2017-10-06T07:35:12.134Z,88.50
2017-10-06T07:37:43.520Z,88.70
2017-10-06T07:40:14.534Z,88.80
2017-10-06T07:42:46.499Z,88.80
2017-10-06T07:45:18.050Z,87.50
2017-10-06T07:47:50.745Z,87.50
2017-10-06T07:50:23.609Z,88.20
2017-10-06T07:53:03.686Z,90.00
2017-10-06T07:55:34.945Z,90.00
2017-10-06T07:58:06.507Z,90.50
2017-10-06T08:00:41.384Z,90.10
2017-10-06T08:03:17.270Z,90.10
2017-10-06T08:06:11.849Z,89.00
2017-10-06T08:08:46.460Z,89.20
2017-10-06T08:11:18.985Z,89.20
2017-10-06T08:14:00.720Z,89.00
2017-10-06T08:16:35.063Z,88.50
2017-10-06T08:21:56.501Z,88.80
2017-10-06T08:24:34.120Z,86.30
2017-10-06T08:27:16.663Z,86.50
2017-10-06T08:29:53.819Z,86.10
2017-10-06T08:32:36.272Z,86.20
2017-10-06T08:35:15.886Z,87.20
2017-10-06T08:37:49.078Z,87.10
2017-10-06T08:40:19.407Z,87.40
2017-10-06T08:42:51.207Z,86.80
2017-10-06T08:45:21.778Z,86.70
2017-10-06T08:47:52.433Z,84.80
2017-10-06T08:50:22.951Z,85.60
2017-10-06T08:52:52.997Z,85.60
2017-10-06T08:55:30.998Z,83.80
2017-10-06T08:58:01.222Z,82.80
2017-10-06T09:00:31.558Z,83.60
2017-10-06T09:03:02.717Z,82.20
2017-10-06T09:05:33.969Z,82.20
2017-10-06T09:08:04.510Z,80.70
2017-10-06T09:10:39.156Z,80.30
2017-10-06T09:13:10.899Z,79.90
2017-10-06T09:15:41.784Z,79.40
2017-10-06T09:18:14.401Z,79.40
2017-10-06T09:20:45.720Z,77.90
2017-10-06T09:23:16.463Z,77.90
2017-10-06T09:25:46.999Z,78.70
2017-10-06T09:28:17.427Z,77.30
2017-10-06T09:30:47.619Z,78.00
2017-10-06T09:33:22.152Z,79.50
2017-10-06T09:35:54.499Z,83.40
2017-10-06T09:38:26.293Z,82.90
2017-10-06T09:41:03.073Z,84.50
2017-10-06T09:43:35.169Z,89.10
2017-10-06T09:46:07.961Z,89.00
2017-10-06T09:48:42.718Z,90.30
2017-10-06T09:51:18.141Z,91.70
2017-10-06T09:53:55.097Z,91.60
2017-10-06T09:56:27.852Z,91.20
2017-10-06T09:59:00.478Z,91.20
2017-10-06T10:01:30.809Z,91.70
2017-10-06T10:04:01.437Z,91.30
2017-10-06T10:06:34.011Z,90.10
2017-10-06T10:09:08.425Z,91.60
2017-10-06T10:14:14.838Z,91.40
2017-10-06T10:16:45.601Z,91.20
2017-10-06T10:19:16.368Z,91.40
2017-10-06T10:21:47.745Z,91.30
2017-10-06T10:24:18.655Z,91.10
2017-10-06T10:26:50.353Z,86.60
2017-10-06T10:29:21.719Z,86.60
2017-10-06T10:31:53.309Z,84.80
2017-10-06T10:34:26.326Z,85.90
2017-10-06T10:36:57.822Z,85.00
2017-10-06T10:39:28.751Z,82.70
2017-10-06T10:41:59.495Z,84.40
2017-10-06T10:44:30.291Z,82.70
2017-10-06T10:47:09.264Z,79.60
2017-10-06T10:49:41.350Z,77.60
2017-10-06T10:52:12.214Z,77.60
2017-10-06T10:54:43.243Z,77.70
2017-10-06T10:57:14.674Z,73.20
2017-10-06T10:59:46.059Z,64.40
2017-10-06T11:02:18.227Z,59.60
2017-10-06T11:04:49.615Z,59.60
2017-10-06T11:07:20.692Z,59.50
2017-10-06T11:09:51.959Z,58.20
2017-10-06T11:12:27.590Z,57.60
2017-10-06T11:14:58.391Z,57.60
2017-10-06T11:17:29.475Z,58.10
2017-10-06T11:20:00.016Z,60.20
2017-10-06T11:22:30.547Z,66.60
2017-10-06T11:25:01.565Z,71.90
2017-10-06T11:27:32.618Z,73.30
2017-10-06T11:30:04.135Z,71.90
2017-10-06T11:32:37.107Z,68.30
2017-10-06T11:35:09.332Z,69.30
2017-10-06T11:37:42.550Z,72.30
2017-10-06T11:40:14.314Z,72.20
2017-10-06T11:42:45.730Z,74.70
2017-10-06T11:45:19.868Z,74.50
2017-10-06T11:47:53.634Z,78.80
2017-10-06T11:50:30.898Z,81.10
2017-10-06T11:53:06.862Z,80.40
2017-10-06T11:55:38.063Z,82.20
2017-10-06T11:58:11.877Z,84.50
2017-10-06T12:00:55.769Z,86.30
2017-10-06T12:03:32.490Z,87.00
2017-10-06T12:06:17.924Z,86.90
2017-10-06T12:08:52.237Z,87.20
2017-10-06T12:11:24.054Z,87.30
2017-10-06T12:13:56.996Z,86.20
2017-10-06T12:16:48.269Z,87.10
2017-10-06T12:19:23.477Z,88.20
2017-10-06T12:21:57.346Z,90.10
2017-10-06T12:24:29.152Z,90.10
2017-10-06T12:27:04.244Z,90.60
2017-10-06T12:29:41.676Z,90.80
2017-10-06T12:32:12.075Z,90.70
2017-10-06T12:34:49.417Z,90.40
2017-10-06T12:37:25.913Z,91.50
2017-10-06T12:40:02.741Z,91.50
2017-10-06T12:42:37.268Z,91.20
2017-10-06T12:45:12.497Z,91.00
2017-10-06T12:47:47.945Z,85.80
2017-10-06T12:50:23.292Z,82.50
2017-10-06T12:52:58.596Z,79.50
2017-10-06T12:55:39.277Z,76.00
2017-10-06T12:58:13.715Z,71.30
2017-10-06T13:01:02.588Z,68.70
2017-10-06T13:03:36.177Z,71.30
2017-10-06T13:06:07.491Z,73.60
2017-10-06T13:08:38.607Z,77.20
2017-10-06T13:19:35.527Z,75.50
2017-10-06T13:22:05.935Z,79.70
2017-10-06T13:24:36.762Z,79.90
2017-10-06T13:27:10.082Z,80.30
2017-10-06T13:29:41.931Z,80.30
2017-10-06T13:32:13.912Z,76.50
2017-10-06T13:34:44.705Z,66.70
2017-10-06T13:37:18.672Z,59.80
2017-10-06T13:39:49.627Z,64.50
2017-10-06T13:42:21.459Z,64.40
2017-10-06T13:44:51.764Z,62.70
2017-10-06T13:47:25.802Z,58.50
2017-10-06T13:50:00.469Z,56.80
2017-10-06T13:52:31.850Z,55.70
2017-10-06T13:55:02.370Z,55.60
2017-10-06T13:57:40.890Z,57.90
2017-10-06T14:00:23.128Z,58.50
2017-10-06T14:02:53.414Z,60.00
2017-10-06T14:05:22.950Z,55.10
2017-10-06T14:07:52.458Z,55.70
2017-10-06T14:10:36.535Z,56.60
2017-10-06T14:13:21.968Z,57.50
2017-10-06T14:15:52.111Z,61.50
2017-10-06T14:18:24.800Z,69.40
2017-10-06T14:20:59.191Z,74.60
2017-10-06T14:23:29.018Z,74.10
2017-10-06T14:25:58.406Z,76.30
2017-10-06T14:28:30.051Z,75.40
2017-10-06T14:30:59.816Z,76.10
2017-10-06T14:33:39.272Z,75.90
2017-10-06T14:36:22.057Z,77.00
2017-10-06T14:38:52.447Z,75.60
2017-10-06T14:41:23.842Z,76.50
2017-10-06T14:43:53.992Z,76.40
2017-10-06T14:46:24.694Z,77.90
2017-10-06T14:48:56.016Z,78.10
2017-10-06T14:51:26.106Z,78.80
2017-10-06T14:53:56.017Z,78.20
2017-10-06T14:56:27.233Z,76.40
2017-10-06T14:58:57.076Z,74.70
2017-10-06T15:01:26.818Z,75.60
2017-10-06T15:04:09.514Z,75.70
2017-10-06T15:06:49.508Z,74.20
2017-10-06T15:09:19.896Z,74.50
2017-10-06T15:11:49.952Z,75.40
2017-10-06T15:14:20.906Z,76.00
2017-10-06T15:16:50.562Z,75.90
2017-10-06T15:19:23.602Z,76.50
2017-10-06T15:21:55.901Z,76.80
2017-10-06T15:24:26.314Z,76.70
2017-10-06T15:26:56.787Z,76.20
2017-10-06T15:29:26.445Z,76.10
2017-10-06T15:31:57.667Z,74.50
2017-10-06T15:34:27.938Z,74.40
2017-10-06T15:37:00.826Z,75.30
2017-10-06T15:39:44.660Z,74.50
2017-10-06T15:42:14.746Z,74.70
2017-10-06T15:44:49.688Z,75.30
2017-10-06T15:47:19.271Z,73.50
2017-10-06T15:49:48.883Z,74.20
2017-10-06T15:52:23.039Z,74.00
2017-10-06T15:54:52.903Z,74.00
2017-10-06T15:57:25.660Z,73.90
2017-10-06T15:59:56.728Z,74.40
2017-10-06T16:02:27.103Z,74.10
2017-10-06T16:04:56.962Z,74.10
2017-10-06T16:07:28.347Z,74.80
2017-10-06T16:10:15.238Z,74.40
2017-10-06T16:12:46.204Z,75.00
2017-10-06T16:15:17.323Z,74.80
2017-10-06T16:17:47.371Z,75.30
2017-10-06T16:20:41.977Z,75.40
2017-10-06T16:23:29.478Z,75.60
2017-10-06T16:26:00.494Z,75.40
2017-10-06T16:28:31.613Z,76.00
2017-10-06T16:31:12.190Z,76.50
2017-10-06T16:33:46.825Z,76.90
2017-10-06T16:36:17.377Z,77.10
2017-10-06T16:38:48.135Z,77.10
2017-10-06T16:41:18.343Z,77.00
2017-10-06T16:43:47.881Z,77.00
2017-10-06T16:46:17.597Z,77.30
2017-10-06T16:48:51.024Z,77.10
2017-10-06T16:51:21.764Z,78.20
2017-10-06T16:53:51.764Z,78.10
2017-10-06T16:56:38.511Z,77.70
2017-10-06T16:59:13.901Z,78.00
2017-10-06T17:01:43.882Z,77.80
2017-10-06T17:04:15.085Z,78.10
2017-10-06T17:06:45.118Z,78.00
2017-10-06T17:09:14.687Z,78.30
2017-10-06T17:11:44.372Z,78.50
2017-10-06T17:14:15.286Z,79.40
2017-10-06T17:16:46.425Z,79.80
2017-10-06T17:19:19.236Z,79.80
2017-10-06T17:21:49.602Z,80.40
2017-10-06T17:24:21.163Z,80.40
2017-10-06T17:26:51.602Z,80.60
2017-10-06T17:29:21.489Z,80.60
2017-10-06T17:31:51.292Z,80.40
2017-10-06T17:34:20.993Z,81.00
2017-10-06T17:36:50.588Z,81.00
2017-10-06T17:39:20.721Z,80.90
2017-10-06T17:41:50.179Z,81.00
2017-10-06T17:44:19.987Z,81.80
2017-10-06T17:46:49.676Z,82.00
2017-10-06T17:49:25.368Z,82.20
2017-10-06T17:52:11.473Z,81.70
2017-10-06T17:54:51.508Z,81.10
2017-10-06T17:57:36.978Z,80.70
2017-10-06T18:00:08.185Z,80.70
2017-10-06T18:02:38.120Z,80.80
2017-10-06T18:05:08.657Z,81.20
2017-10-06T18:07:38.554Z,81.80
2017-10-06T18:10:08.739Z,81.10
2017-10-06T18:12:39.133Z,81.70
2017-10-06T18:15:10.786Z,81.40
2017-10-06T18:17:44.084Z,81.00
2017-10-06T18:20:24.044Z,81.40
2017-10-06T18:22:53.641Z,81.40
2017-10-06T18:25:27.845Z,81.40
2017-10-06T18:27:59.006Z,82.00
2017-10-06T18:30:29.414Z,82.20
2017-10-06T18:32:59.988Z,82.10
2017-10-06T18:35:31.542Z,82.40
2017-10-06T18:38:08.514Z,82.70
2017-10-06T18:40:38.585Z,83.00
2017-10-06T18:43:09.427Z,83.00
2017-10-06T18:45:42.432Z,84.10
2017-10-06T18:48:18.370Z,83.80
2017-10-06T18:50:52.529Z,83.60
2017-10-06T18:53:24.549Z,83.60
2017-10-06T18:55:56.773Z,84.10
2017-10-06T18:58:26.758Z,84.80
2017-10-06T19:00:56.555Z,84.70
2017-10-06T19:03:28.658Z,84.30
2017-10-06T19:05:59.555Z,84.20
2017-10-06T19:08:30.298Z,84.30
2017-10-06T19:11:00.330Z,84.00
2017-10-06T19:13:33.295Z,84.30
2017-10-06T19:16:10.553Z,84.20
2017-10-06T19:18:43.529Z,84.70
2017-10-06T19:21:13.563Z,84.60
2017-10-06T19:23:57.305Z,83.70
2017-10-06T19:26:28.674Z,84.20
2017-10-06T19:29:06.227Z,83.60
2017-10-06T19:31:44.390Z,83.60
2017-10-06T19:34:23.540Z,84.20
2017-10-06T19:37:01.040Z,84.20
2017-10-06T19:39:33.461Z,84.10
2017-10-06T19:42:11.533Z,84.00
2017-10-06T19:44:46.111Z,84.60
2017-10-06T19:47:16.681Z,84.60
2017-10-06T19:49:46.164Z,84.80
2017-10-06T19:52:21.377Z,84.80
2017-10-06T19:54:51.787Z,84.60
2017-10-06T19:57:23.627Z,84.60
2017-10-06T19:59:53.166Z,84.40
2017-10-06T20:02:23.811Z,84.50
2017-10-06T20:05:04.118Z,84.20
2017-10-06T20:07:43.724Z,84.10
2017-10-06T20:10:23.217Z,84.50
2017-10-06T20:13:03.698Z,84.50
2017-10-06T20:15:46.130Z,84.70
2017-10-06T20:18:28.571Z,84.90
2017-10-06T20:20:58.764Z,84.90
2017-10-06T20:23:32.235Z,84.50
2017-10-06T20:26:02.909Z,84.30
2017-10-06T20:28:34.167Z,84.50
2017-10-06T20:31:13.524Z,84.30
2017-10-06T20:33:44.050Z,84.30
2017-10-06T20:36:14.324Z,83.90
2017-10-06T20:38:48.860Z,83.70
2017-10-06T20:41:19.306Z,83.70
2017-10-06T20:43:48.935Z,83.60
2017-10-06T20:46:18.827Z,83.70
2017-10-06T20:48:49.268Z,84.00
2017-10-06T20:51:19.267Z,84.10
2017-10-06T20:53:52.896Z,83.60
2017-10-06T20:56:27.787Z,83.70
2017-10-06T20:59:07.197Z,83.80
2017-10-06T21:01:46.401Z,83.70
2017-10-06T21:04:16.851Z,83.20
2017-10-06T21:06:47.226Z,83.10
2017-10-06T21:09:16.695Z,83.80
2017-10-06T21:11:47.506Z,83.80
2017-10-06T21:14:17.335Z,83.80
2017-10-06T21:16:47.628Z,84.80
2017-10-06T21:19:26.789Z,84.20
2017-10-06T21:22:03.376Z,83.80
2017-10-06T21:24:39.482Z,83.80
2017-10-06T21:27:17.318Z,84.20
2017-10-06T21:29:56.487Z,84.20
2017-10-06T21:32:32.949Z,85.10
2017-10-06T21:35:04.520Z,84.40
2017-10-06T21:37:41.581Z,84.00
2017-10-06T21:40:14.357Z,83.90
2017-10-06T21:42:44.098Z,83.40
2017-10-06T21:45:15.303Z,84.00
2017-10-06T21:47:45.011Z,83.80
2017-10-06T21:50:22.306Z,84.00
2017-10-06T21:52:55.073Z,84.10
2017-10-06T21:55:24.707Z,84.20
2017-10-06T21:57:55.235Z,84.30
2017-10-06T22:00:30.853Z,84.40
2017-10-06T22:03:01.790Z,84.20
2017-10-06T22:05:32.228Z,83.80
2017-10-06T22:08:01.972Z,83.60
2017-10-06T22:10:32.115Z,83.80
2017-10-06T22:13:07.502Z,83.30
2017-10-06T22:15:38.106Z,83.40
2017-10-06T22:18:07.626Z,83.40
2017-10-06T22:20:38.684Z,83.50
2017-10-06T22:23:09.242Z,83.30
2017-10-06T22:25:40.214Z,83.50
2017-10-06T22:28:14.205Z,82.70
2017-10-06T22:30:47.176Z,82.30
2017-10-06T22:33:17.568Z,82.20
2017-10-06T22:35:57.851Z,82.20
2017-10-06T22:38:33.523Z,82.20
2017-10-06T22:41:03.374Z,83.60
2017-10-06T22:43:33.154Z,84.10
2017-10-06T22:46:02.472Z,84.50
2017-10-06T22:48:32.241Z,85.60
2017-10-06T22:51:02.053Z,85.40
2017-10-06T22:53:31.521Z,86.20
2017-10-06T22:56:05.735Z,86.40
2017-10-06T22:58:36.707Z,86.30
2017-10-06T23:01:08.942Z,86.60
2017-10-06T23:03:39.346Z,86.50
2017-10-06T23:06:09.905Z,86.50
2017-10-06T23:08:41.045Z,87.00
2017-10-06T23:11:19.630Z,87.00
2017-10-06T23:13:51.950Z,86.90
2017-10-06T23:16:36.738Z,86.70
2017-10-06T23:19:10.063Z,86.70
2017-10-06T23:21:39.659Z,86.60
2017-10-06T23:24:11.172Z,86.50
2017-10-06T23:26:44.605Z,86.00
2017-10-06T23:29:14.915Z,86.70
2017-10-06T23:31:47.376Z,87.50
2017-10-06T23:34:19.320Z,87.50
2017-10-06T23:36:56.074Z,87.80
2017-10-06T23:39:25.881Z,87.80
2017-10-06T23:41:58.829Z,88.20
2017-10-06T23:44:29.738Z,88.40
2017-10-06T23:47:01.676Z,88.40
2017-10-06T23:49:31.906Z,87.80
2017-10-06T23:52:14.867Z,88.20
2017-10-06T23:55:02.342Z,88.60
2017-10-06T23:57:34.121Z,88.00
